Flight Track Log - Related Links

Times and Time Zones

All times are in EDT time to prevent confusion due to time zone crossing. See the N921TX flight status page for this flight to view local times or setup timezone preferences in your user account.


Time Position Orientation Groundspeed Altitude Reporting Facility
EDT Latitude Longitude Course Direction KTS MPH feet Rate Location/Type
Mon 07:18:12 PM 44.9756 -92.9569 231° Southwest 196 226 4,400  Level Minneapolis Center
Mon 07:19:14 PM 45.0303 -92.9431 10° North 205 236 6,300 1,887 Climbing Minneapolis Center
Mon 07:20:16 PM 45.0592 -92.9828 316° Northwest 146 168 8,300 1,984 Climbing Minneapolis Center
Mon 07:21:18 PM 45.0492 -93.0389 256° West 146 168 10,400 1,694 Climbing Minneapolis Center
Mon 07:22:00 PM 44.4499 -93.2249 211° Southwest  Level Estimated
Mon 07:22:20 PM 45.0150 -93.0711 214° Southwest 149 171 11,800  Level Minneapolis Center
Mon 07:23:00 PM 44.3972 -93.3148 231° Southwest  Level FlightAware Approximate
Mon 07:23:34 PM 44.9736 -93.1089 213° Southwest 174 200 13,300  Level Minneapolis Center
Mon 07:24:36 PM 44.9233 -93.1544 213° Southwest 179 206 15,200 1,584 Climbing Minneapolis Center
Mon 07:25:39 PM 44.8811 -93.1944 214° Southwest 183 211 16,600 1,536 Climbing Minneapolis Center
Mon 07:26:41 PM 44.8250 -93.2456 213° Southwest 195 224 18,400 1,403 Climbing Minneapolis Center
Mon 07:27:43 PM 44.7744 -93.2886 211° Southwest 209 241 19,500 1,113 Climbing Minneapolis Center
Mon 07:28:45 PM 44.7261 -93.3347 214° Southwest 217 250 20,700 1,113 Climbing Minneapolis Center
Mon 07:29:47 PM 44.6747 -93.3800 212° Southwest 220 253 21,800 1,113 Climbing Minneapolis Center
Mon 07:30:49 PM 44.6125 -93.4364 213° Southwest 222 255 23,000 1,065 Climbing Minneapolis Center
Mon 07:31:51 PM 44.5597 -93.4836 213° Southwest 226 260 24,000 919 Climbing Minneapolis Center
Mon 07:32:53 PM 44.5064 -93.5314 213° Southwest 227 261 24,900 871 Climbing Minneapolis Center
Mon 07:33:55 PM 44.4522 -93.5797 213° Southwest 230 265 25,800 871 Climbing Minneapolis Center
Mon 07:34:57 PM 44.3944 -93.6228 208° Southwest 234 269 26,700 871 Climbing Minneapolis Center
Mon 07:35:59 PM 44.3269 -93.6375 189° South 241 277 27,600 919 Climbing Minneapolis Center
Mon 07:37:01 PM 44.2464 -93.6600 191° South 246 283 28,600 919 Climbing Minneapolis Center
Mon 07:38:03 PM 44.1781 -93.6789 191° South 250 288 29,500 829 Climbing Minneapolis Center
Mon 07:39:04 PM 44.1242 -93.6942 192° South 249 287 30,300 878 Climbing Minneapolis Center
Mon 07:40:06 PM 44.0442 -93.7158 191° South 245 282 31,300 871 Climbing Minneapolis Center
Mon 07:41:08 PM 43.9908 -93.7319 192° South 246 283 32,100 871 Climbing Minneapolis Center
Mon 07:42:10 PM 43.9114 -93.7531 191° South 243 280 33,100 1,016 Climbing Minneapolis Center
Mon 07:43:12 PM 43.8331 -93.7767 192° South 241 277 34,200 871 Climbing Minneapolis Center
Mon 07:44:14 PM 43.7678 -93.7933 190° South 240 276 34,900 683 Climbing Minneapolis Center
Mon 07:45:15 PM 43.7028 -93.8119 192° South 240 276 35,600 732 Climbing Minneapolis Center
Mon 07:46:17 PM 43.6383 -93.8289 191° South 238 274 36,400 726 Climbing Minneapolis Center
Mon 07:47:19 PM 43.5758 -93.8472 192° South 231 266 37,100 581 Climbing Minneapolis Center
Mon 07:48:21 PM 43.5058 -93.8661 191° South 233 268 37,600 387 Climbing Minneapolis Center
Mon 07:49:23 PM 43.4411 -93.8836 191° South 236 272 37,900 265 Climbing Minneapolis Center
Mon 07:50:37 PM 43.3733 -93.9022 191° South 246 283 38,200 353 Climbing Minneapolis Center
Mon 07:51:39 PM 43.2908 -93.9253 191° South 253 291 38,700 484 Climbing Minneapolis Center
Mon 07:52:41 PM 43.2083 -93.9475 191° South 254 292 39,200 387 Climbing Minneapolis Center
Mon 07:53:43 PM 43.1400 -93.9672 192° South 253 291 39,500 290 Climbing Minneapolis Center
Mon 07:54:45 PM 43.0700 -93.9850 191° South 256 295 39,800 244 Climbing Minneapolis Center
Mon 07:55:46 PM 42.9986 -94.0042 191° South 262 302 40,000 98 Climbing Minneapolis Center
Mon 07:56:48 PM 42.9275 -94.0242 192° South 264 304 40,000  Level Minneapolis Center
Mon 07:57:50 PM 42.8375 -94.0481 191° South 276 318 40,000  Level Minneapolis Center
Mon 07:58:52 PM 42.7608 -94.0700 192° South 284 327 40,000  Level Minneapolis Center
Mon 07:59:54 PM 42.6814 -94.0906 191° South 292 336 40,000  Level Minneapolis Center
Mon 08:00:55 PM 42.6022 -94.1106 191° South 294 338 40,000  Level Minneapolis Center
Mon 08:01:57 PM 42.5228 -94.1319 191° South 294 338 40,000  Level Minneapolis Center
Mon 08:02:59 PM 42.4592 -94.1497 192° South 295 339 40,000  Level Minneapolis Center
Mon 08:04:01 PM 42.3453 -94.1806 191° South 300 345 40,000  Level Minneapolis Center
Mon 08:05:03 PM 42.2633 -94.2017 191° South 303 349 40,000  Level Minneapolis Center
Mon 08:06:04 PM 42.1700 -94.2250 190° South 303 349 40,000  Level Minneapolis Center
Mon 08:07:06 PM 42.0864 -94.2467 191° South 305 351 40,000  Level Minneapolis Center
Mon 08:08:08 PM 42.0022 -94.2683 191° South 306 352 40,000  Level Minneapolis Center
Mon 08:09:10 PM 41.9181 -94.2908 191° South 308 354 40,000  Level Minneapolis Center
Mon 08:10:11 PM 41.8331 -94.3131 191° South 308 354 40,000  Level Minneapolis Center
Mon 08:11:13 PM 41.7481 -94.3347 191° South 308 354 40,000  Level Minneapolis Center
Mon 08:12:15 PM 41.6642 -94.3567 191° South 308 354 40,000  Level Minneapolis Center
Mon 08:13:17 PM 41.5783 -94.3792 191° South 311 358 40,000  Level Minneapolis Center
Mon 08:14:19 PM 41.4772 -94.4061 191° South 309 356 40,000  Level Minneapolis Center
Mon 08:15:20 PM 41.3914 -94.4269 190° South 312 359 40,000  Level Minneapolis Center
Mon 08:16:22 PM 41.3244 -94.4436 191° South 310 357 40,000  Level Minneapolis Center
Mon 08:17:24 PM 41.2219 -94.4703 191° South 310 357 40,000  Level Minneapolis Center
Mon 08:18:26 PM 41.1381 -94.4925 191° South 313 360 40,000  Level Minneapolis Center
Mon 08:20:30 PM 40.9542 -94.5397 191° South 310 357 40,000  Level Minneapolis Center
Mon 08:21:32 PM 40.8703 -94.5608 191° South 310 357 40,000  Level Minneapolis Center
Mon 08:22:33 PM 40.7972 -94.5797 191° South 309 356 40,000  Level Minneapolis Center
Mon 08:23:35 PM 40.6961 -94.6047 191° South 308 354 40,000  Level Minneapolis Center
Mon 08:24:37 PM 40.6106 -94.6256 190° South 309 356 40,000  Level Minneapolis Center
Mon 08:25:39 PM 40.5264 -94.6478 191° South 309 356 40,000  Level Minneapolis Center
Mon 08:26:41 PM 40.4419 -94.6689 191° South 308 354 40,000  Level Minneapolis Center
Mon 08:27:53 PM 40.3425 -94.6933 191° South 308 354 40,000  Level Kansas City Center
Mon 08:28:55 PM 40.2494 -94.7186 192° South 305 351 40,000  Level Kansas City Center
Mon 08:29:57 PM 40.1689 -94.7364 190° South 306 352 40,000  Level Kansas City Center
Mon 08:30:59 PM 40.0753 -94.7597 191° South 309 356 40,000  Level Kansas City Center
Mon 08:32:00 PM 39.9942 -94.7794 191° South 310 357 40,000  Level Kansas City Center
Mon 08:33:02 PM 39.8986 -94.8036 191° South 312 359 40,000  Level Kansas City Center
Mon 08:34:04 PM 39.8164 -94.8239 191° South 313 360 40,000  Level Kansas City Center
Mon 08:35:06 PM 39.7347 -94.8439 191° South 314 361 40,000  Level Kansas City Center
Mon 08:36:08 PM 39.6403 -94.8669 191° South 310 357 40,000  Level Kansas City Center
Mon 08:37:09 PM 39.5583 -94.8872 191° South 311 358 40,000  Level Kansas City Center
Mon 08:38:11 PM 39.4631 -94.9106 191° South 312 359 40,000  Level Kansas City Center
Mon 08:39:13 PM 39.3808 -94.9286 190° South 320 368 40,000  Level Kansas City Center
Mon 08:40:15 PM 39.2842 -94.9525 191° South 315 362 40,000  Level Kansas City Center
Mon 08:41:17 PM 39.2022 -94.9722 191° South 309 356 40,000  Level Kansas City Center
Mon 08:42:18 PM 39.1197 -94.9881 188° South 316 364 40,000  Level Kansas City Center
Mon 08:43:20 PM 39.0253 -95.0133 192° South 309 356 40,000  Level Kansas City Center
Mon 08:44:22 PM 38.9442 -95.0328 191° South 306 352 40,000  Level Kansas City Center
Mon 08:45:24 PM 38.8508 -95.0556 191° South 304 350 40,000  Level Kansas City Center
Mon 08:47:00 PM 38.7278 -95.0706 190° South  Level FlightAware Approximate
Mon 08:47:27 PM 38.6919 -95.0936 190° South 301 346 40,000  Level Kansas City Center
Mon 08:48:29 PM 38.5994 -95.1189 192° South 302 348 40,000  Level Kansas City Center
Mon 08:49:31 PM 38.5208 -95.1417 193° South 301 346 40,000  Level Kansas City Center
Mon 08:50:33 PM 38.4300 -95.1678 193° South 299 344 40,000  Level Kansas City Center
Mon 08:51:34 PM 38.3533 -95.1914 194° South 297 342 40,000  Level Kansas City Center
Mon 08:52:36 PM 38.2622 -95.2164 192° South 298 343 40,000  Level Kansas City Center
Mon 08:53:38 PM 38.1844 -95.2397 193° South 299 344 40,000  Level Kansas City Center
Mon 08:54:39 PM 38.1086 -95.2597 192° South 294 338 40,000  Level Kansas City Center
Mon 08:55:41 PM 38.0189 -95.2861 193° South 294 338 40,000  Level Kansas City Center
Mon 08:56:43 PM 37.9422 -95.3075 192° South 295 339 40,000  Level Kansas City Center
Mon 08:57:45 PM 37.8619 -95.3278 191° South 294 338 40,000  Level Kansas City Center
Mon 08:58:46 PM 37.7811 -95.3497 192° South 296 341 40,000  Level Kansas City Center
Mon 08:59:48 PM 37.6825 -95.3781 193° South 301 346 40,000  Level Kansas City Center
Mon 09:00:50 PM 37.6000 -95.4011 192° South 303 349 40,000  Level Kansas City Center
Mon 09:01:51 PM 37.5178 -95.4236 192° South 302 348 40,000  Level Kansas City Center
Mon 09:02:53 PM 37.4353 -95.4469 193° South 303 349 40,000  Level Kansas City Center
Mon 09:03:55 PM 37.3539 -95.4697 193° South 301 346 40,000  Level Kansas City Center
Mon 09:04:57 PM 37.2719 -95.4917 192° South 300 345 40,000  Level Kansas City Center
Mon 09:05:58 PM 37.1908 -95.5144 193° South 299 344 40,000  Level Kansas City Center
Mon 09:07:00 PM 37.1103 -95.5372 193° South 298 343 40,000  Level Kansas City Center
Mon 09:08:02 PM 37.0150 -95.5644 193° South 295 339 40,000  Level Kansas City Center
Mon 09:09:03 PM 36.9339 -95.5864 192° South 296 341 40,000  Level Kansas City Center
Mon 09:10:05 PM 36.8556 -95.6089 193° South 293 337 40,000  Level Kansas City Center
Mon 09:11:07 PM 36.7758 -95.6314 193° South 293 337 40,000  Level Kansas City Center
Mon 09:12:08 PM 36.6961 -95.6536 193° South 293 337 40,000  Level Kansas City Center
Mon 09:13:10 PM 36.6161 -95.6758 193° South 294 338 40,000  Level Kansas City Center
Mon 09:14:11 PM 36.5275 -95.6997 192° South 296 341 40,000  Level Kansas City Center
Mon 09:15:13 PM 36.4467 -95.7225 193° South 298 343 40,000  Level Kansas City Center
Mon 09:16:15 PM 36.3656 -95.7439 192° South 298 343 40,000  Level Kansas City Center
Mon 09:17:16 PM 36.2794 -95.7661 192° South 297 342 40,000  Level Kansas City Center
Mon 09:18:18 PM 36.1978 -95.7867 191° South 299 344 40,000  Level Kansas City Center
Mon 09:19:20 PM 36.1167 -95.7628 167° South 303 349 40,000  Level Kansas City Center
Mon 09:20:21 PM 36.0364 -95.7356 165° South 301 346 40,000  Level Kansas City Center
Mon 09:21:23 PM 35.9375 -95.7072 167° South 303 349 40,000  Level Kansas City Center
Mon 09:22:24 PM 35.8539 -95.6939 173° South 303 349 40,000  Level Kansas City Center
Mon 09:23:26 PM 35.7692 -95.6808 173° South 306 352 40,000  Level Kansas City Center
Mon 09:24:28 PM 35.6833 -95.6669 173° South 309 356 40,000  Level Kansas City Center
Mon 09:25:29 PM 35.5983 -95.6531 172° South 308 354 40,000  Level Kansas City Center
Mon 09:26:31 PM 35.5128 -95.6394 173° South 308 354 40,000  Level Kansas City Center
Mon 09:27:32 PM 35.4278 -95.6250 172° South 308 354 40,000  Level Kansas City Center
Mon 09:28:34 PM 35.3247 -95.6081 172° South 310 357 40,000  Level Kansas City Center
Mon 09:29:57 PM 35.2094 -95.5942 174° South 314 361 40,000  Level Fort Worth Center
Mon 09:30:57 PM 35.1239 -95.5808 173° South 314 361 40,000  Level Fort Worth Center
Mon 09:31:57 PM 35.0361 -95.5675 173° South 314 361 40,000  Level Fort Worth Center
Mon 09:32:57 PM 34.9628 -95.5539 171° South 314 361 40,000 -100 Level Fort Worth Center
Mon 09:33:57 PM 34.8750 -95.5406 173° South 314 361 39,800 -850 Descending Fort Worth Center
Mon 09:34:57 PM 34.7853 -95.5300 174° South 314 361 38,300 -1,500 Descending Fort Worth Center
Mon 09:35:57 PM 34.6994 -95.5142 171° South 319 367 36,800 -1,500 Descending Fort Worth Center
Mon 09:36:57 PM 34.6208 -95.5564 204° Southwest 297 342 35,300 -1,600 Descending Fort Worth Center
Mon 09:37:57 PM 34.5297 -95.6036 203° Southwest 315 362 33,600 -1,600 Descending Fort Worth Center
Mon 09:38:57 PM 34.4550 -95.6456 205° Southwest 310 357 32,100 -1,600 Descending Fort Worth Center
Mon 09:39:57 PM 34.3764 -95.6925 206° Southwest 310 357 30,400 -1,500 Descending Fort Worth Center
Mon 09:40:57 PM 34.3000 -95.7392 207° Southwest 315 362 29,100 -1,400 Descending Fort Worth Center
Mon 09:41:57 PM 34.2192 -95.7861 206° Southwest 320 368 27,600 -1,500 Descending Fort Worth Center
Mon 09:42:57 PM 34.1406 -95.8325 206° Southwest 320 368 26,100 -1,450 Descending Fort Worth Center
Mon 09:43:57 PM 34.0681 -95.8742 205° Southwest 315 362 24,700 -1,450 Descending Fort Worth Center
Mon 09:44:57 PM 33.9914 -95.9206 207° Southwest 315 362 23,200 -1,500 Descending Fort Worth Center
Mon 09:45:57 PM 33.9147 -95.9644 205° Southwest 315 362 21,700 -1,500 Descending Fort Worth Center
Mon 09:46:57 PM 33.8378 -96.0081 205° Southwest 315 362 20,200 -1,500 Descending Fort Worth Center
Mon 09:47:57 PM 33.7592 -96.0519 205° Southwest 315 362 18,700 -1,650 Descending Fort Worth Center
Mon 09:48:57 PM 33.6864 -96.0953 206° Southwest 303 349 16,900 -2,500 Descending Fort Worth Center
Mon 09:49:57 PM 33.6139 -96.1364 205° Southwest 297 342 13,700 -3,550 Descending Fort Worth Center
Mon 09:50:57 PM 33.5433 -96.1747 204° Southwest 291 335 9,800 -2,350 Descending Fort Worth Center
Mon 09:51:57 PM 33.4811 -96.2106 206° Southwest 271 312 9,000 -400 Descending Fort Worth Center
Mon 09:52:57 PM 33.4228 -96.2436 205° Southwest 250 288 9,000  Level Fort Worth Center
Mon 09:53:57 PM 33.3647 -96.2792 207° Southwest 236 272 9,000  Level Fort Worth Center
Mon 09:54:57 PM 33.3067 -96.3122 205° Southwest 236 272 9,000  Level Fort Worth Center
Mon 09:55:57 PM 33.2506 -96.3503 210° Southwest 236 272 9,000 -379 Level Fort Worth Center
Mon 09:56:32 PM 33.2333 -96.3833 238° Southwest 238 274 8,400 -1,426 Descending Dallas / Fort Worth TRACON
Mon 09:57:38 PM 33.1833 -96.4500 228° Southwest 246 283 6,600 -1,619 Descending Dallas / Fort Worth TRACON
Mon 09:58:38 PM 33.1167 -96.4833 203° Southwest 247 284 5,000 -1,550 Descending Dallas / Fort Worth TRACON
Mon 09:59:38 PM 33.0667 -96.5000 196° South 226 260 3,500 -1,000 Descending Dallas / Fort Worth TRACON
Mon 10:00:38 PM 33.0000 -96.5333 203° Southwest 206 237 3,000 -250 Descending Dallas / Fort Worth TRACON
Mon 10:01:38 PM 32.9500 -96.5167 164° South 186 214 3,000  Level Dallas / Fort Worth TRACON
Mon 10:02:57 PM 32.8803 -96.5303 189° South 194 223 3,000 13,813 Level Fort Worth Center
Mon 10:03:57 PM 32.8283 -96.5308 181° South 194 223 35,000 16,000 Climbing Fort Worth Center
Mon 10:04:57 PM 32.7761 -96.5314 181° South 194 223 35,000  Level Fort Worth Center
Mon 10:05:57 PM 32.7239 -96.5319 181° South 194 223 35,000  Level Fort Worth Center
Mon 10:07:00 PM 32.7333 -96.5167 North  Level FlightAware Approximate

Login

Don't have an account? Register now (free) for customized features, flight alerts, and more!